KPOC/POC METAR and TAF weather

Enter ICAO airport designator
Station Type Date Time Source
KPOC METAR 2019/04/19 03:47 UTC NOAA

KPOC 190347Z 27005KT 10SM CLR 20/09 A3004 RMK LAST


Station Type Date Time Source
KPOC Decoded METAR 2019/04/19 03:47 UTC NOAA

La Verne / Brackett, CA, United States (KPOC) 34-06N 117-47W
Apr 18, 2019 - 11:47 PM EDT / 2019.04.19 0347 UTC
Wind: from the W (270 degrees) at 6 MPH (5 KT):0
Visibility: 10 mile(s):0
Sky conditions: clear
Temperature: 68 F (20 C)
Dew Point: 48 F (9 C)
Relative Humidity: 49%
Pressure (altimeter): 30.04 in. Hg (1017 hPa)
ob: KPOC 190347Z 27005KT 10SM CLR 20/09 A3004 RMK LAST
cycle: 4

Station Type Date Time Source
KPOC TAF UTC NOAA

Error!

Example: see airport list